createdAt,value
2022-12-04T00:04:29.297Z,95.90
2022-12-04T00:09:30.921Z,95.46
2022-12-04T00:14:32.635Z,96.59
2022-12-04T00:19:34.097Z,96.15
2022-12-04T00:24:35.641Z,96.18
2022-12-04T00:29:37.090Z,95.65
2022-12-04T00:34:38.577Z,95.48
2022-12-04T00:39:39.975Z,95.22
2022-12-04T00:44:41.483Z,95.61
2022-12-04T00:49:42.943Z,95.56
2022-12-04T00:54:44.427Z,95.38
2022-12-04T00:59:45.867Z,95.35
2022-12-04T01:04:47.617Z,94.84
2022-12-04T01:09:49.112Z,95.24
2022-12-04T01:14:50.543Z,95.27
2022-12-04T01:19:52.250Z,95.68
2022-12-04T01:24:56.930Z,95.62
2022-12-04T01:29:58.494Z,95.61
2022-12-04T01:34:59.913Z,96.14
2022-12-04T01:40:01.563Z,95.32
2022-12-04T01:45:24.808Z,95.40
2022-12-04T01:50:26.400Z,95.34
2022-12-04T01:55:28.008Z,94.73
2022-12-04T02:00:29.574Z,95.38
2022-12-04T02:05:31.030Z,95.45
2022-12-04T02:10:41.218Z,95.50
2022-12-04T02:15:55.506Z,95.82
2022-12-04T02:20:56.956Z,95.85
2022-12-04T02:26:36.178Z,95.35
2022-12-04T02:32:01.429Z,95.15
2022-12-04T02:37:14.401Z,95.58
2022-12-04T02:42:19.968Z,94.69
2022-12-04T02:47:24.119Z,94.83
2022-12-04T02:52:36.285Z,94.78
2022-12-04T02:57:44.104Z,95.06
2022-12-04T03:02:54.620Z,95.36
2022-12-04T03:07:58.795Z,95.31
2022-12-04T03:13:09.003Z,95.96
2022-12-04T03:18:18.589Z,96.44
2022-12-04T03:23:30.183Z,96.39
2022-12-04T03:28:43.842Z,95.91
2022-12-04T03:33:47.713Z,96.31
2022-12-04T03:39:05.748Z,96.37
2022-12-04T03:44:39.545Z,96.91
2022-12-04T03:49:46.898Z,96.25
2022-12-04T03:55:01.983Z,96.24
2022-12-04T04:00:08.528Z,96.17
2022-12-04T04:05:12.847Z,97.14
2022-12-04T04:10:17.549Z,97.00
2022-12-04T04:15:38.816Z,97.09
2022-12-04T04:21:03.275Z,96.46
2022-12-04T04:26:07.262Z,95.84
2022-12-04T04:31:16.619Z,96.65
2022-12-04T04:36:31.453Z,95.97
2022-12-04T04:41:43.825Z,96.02
2022-12-04T04:46:52.570Z,95.97
2022-12-04T04:51:55.077Z,96.59
2022-12-04T04:56:56.692Z,95.94
2022-12-04T05:01:58.491Z,95.98
2022-12-04T05:06:59.966Z,96.28
2022-12-04T05:12:01.372Z,96.49
2022-12-04T05:17:12.136Z,96.87
2022-12-04T05:22:14.146Z,96.22
2022-12-04T05:27:15.631Z,96.02
2022-12-04T05:32:17.096Z,96.29
2022-12-04T05:37:19.109Z,96.66
2022-12-04T05:42:20.695Z,95.60
2022-12-04T05:47:22.123Z,95.96
2022-12-04T05:52:23.629Z,96.16
2022-12-04T05:57:25.675Z,96.27
2022-12-04T06:02:27.379Z,96.62
2022-12-04T06:07:28.914Z,96.71
2022-12-04T06:12:30.714Z,96.15
2022-12-04T06:17:32.164Z,95.93
2022-12-04T06:22:33.952Z,96.85
2022-12-04T06:27:35.625Z,96.48
2022-12-04T06:32:37.085Z,96.43
2022-12-04T06:37:38.560Z,96.04
2022-12-04T06:42:40.077Z,97.05
2022-12-04T06:47:41.660Z,96.38
2022-12-04T06:52:43.090Z,96.72
2022-12-04T06:57:44.521Z,97.87
2022-12-04T07:02:46.050Z,97.02
2022-12-04T07:07:47.546Z,97.32
2022-12-04T07:12:49.049Z,96.74
2022-12-04T07:17:50.520Z,97.76
2022-12-04T07:22:52.160Z,96.88
2022-12-04T07:27:53.623Z,97.12
2022-12-04T07:32:55.112Z,96.51
2022-12-04T07:37:56.598Z,96.35
2022-12-04T07:42:58.093Z,96.97
2022-12-04T07:47:59.569Z,96.17
2022-12-04T07:53:01.014Z,96.69
2022-12-04T07:58:02.518Z,97.26
2022-12-04T08:03:04.424Z,96.85
2022-12-04T08:08:06.167Z,96.86
2022-12-04T08:13:07.704Z,96.58
2022-12-04T08:18:09.202Z,96.50
2022-12-04T08:23:10.887Z,96.36
2022-12-04T08:28:12.457Z,95.94
2022-12-04T08:33:13.922Z,95.93
2022-12-04T08:38:15.495Z,96.06
2022-12-04T08:43:17.086Z,96.01
2022-12-04T08:48:18.580Z,95.48
2022-12-04T08:53:20.674Z,95.73
2022-12-04T08:58:22.601Z,95.86
2022-12-04T09:03:30.588Z,96.01
2022-12-04T09:08:33.595Z,96.08
2022-12-04T09:13:35.958Z,95.92
2022-12-04T09:18:38.524Z,95.74
2022-12-04T09:23:40.889Z,94.93
2022-12-04T09:28:42.457Z,96.38
2022-12-04T09:33:46.027Z,96.22
2022-12-04T09:38:50.382Z,95.93
2022-12-04T09:43:57.973Z,96.08
2022-12-04T09:49:04.091Z,95.94
2022-12-04T09:54:14.000Z,96.28
2022-12-04T09:59:22.317Z,96.32
2022-12-04T10:04:25.674Z,95.47
2022-12-04T10:09:45.443Z,94.99
2022-12-04T10:15:06.745Z,96.29
2022-12-04T10:20:08.247Z,96.47
2022-12-04T10:25:24.358Z,94.78
2022-12-04T10:30:32.439Z,95.76
2022-12-04T10:35:36.190Z,95.69
2022-12-04T10:40:44.237Z,95.20
2022-12-04T10:45:45.700Z,95.10
2022-12-04T10:50:47.221Z,95.18
2022-12-04T10:55:49.002Z,95.21
2022-12-04T11:01:02.895Z,95.63
2022-12-04T11:06:06.786Z,95.68
2022-12-04T11:11:12.535Z,95.41
2022-12-04T11:16:35.705Z,94.63
2022-12-04T11:21:38.607Z,94.22
2022-12-04T11:26:42.728Z,94.86
2022-12-04T11:31:49.649Z,94.39
2022-12-04T11:36:56.492Z,95.46
2022-12-04T11:42:16.577Z,95.29
2022-12-04T11:47:20.139Z,95.60
2022-12-04T11:52:49.648Z,94.86
2022-12-04T11:57:54.165Z,94.31
2022-12-04T12:03:15.237Z,94.44
2022-12-04T12:09:12.154Z,94.86
2022-12-04T12:14:28.384Z,95.61
2022-12-04T12:19:55.483Z,95.60
2022-12-04T12:25:12.037Z,94.78
2022-12-04T12:30:22.454Z,95.43
2022-12-04T12:35:26.875Z,94.79
2022-12-04T12:40:43.650Z,95.66
2022-12-04T12:45:56.960Z,95.29
2022-12-04T12:51:31.728Z,96.21
2022-12-04T12:56:47.798Z,95.99
2022-12-04T13:02:01.059Z,96.48
2022-12-04T13:07:17.752Z,97.17
2022-12-04T13:12:22.027Z,97.09
2022-12-04T13:17:33.922Z,96.96
2022-12-04T13:22:51.913Z,97.06
2022-12-04T13:27:56.460Z,97.26
2022-12-04T13:32:57.876Z,97.97
2022-12-04T13:38:05.638Z,97.44
2022-12-04T13:43:37.092Z,96.75
2022-12-04T13:48:41.244Z,96.44
2022-12-04T13:53:43.887Z,97.75
2022-12-04T13:58:45.312Z,97.57
2022-12-04T14:03:50.628Z,97.78
2022-12-04T14:09:05.270Z,98.92
2022-12-04T14:14:08.346Z,98.60
2022-12-04T14:19:27.422Z,99.20
2022-12-04T14:24:35.650Z,99.89
2022-12-04T14:29:51.094Z,99.43
2022-12-04T14:34:53.452Z,99.39
2022-12-04T14:39:56.938Z,100.00
2022-12-04T14:45:00.722Z,99.97
2022-12-04T14:50:20.808Z,99.89
2022-12-04T14:55:57.752Z,100.00
2022-12-04T15:01:02.180Z,99.00
2022-12-04T15:06:12.016Z,99.75
2022-12-04T15:11:39.916Z,99.57
2022-12-04T15:16:41.655Z,99.36
2022-12-04T15:21:43.310Z,99.59
2022-12-04T15:26:46.738Z,99.59
2022-12-04T15:31:56.738Z,100.00
2022-12-04T15:37:07.367Z,100.00
2022-12-04T15:42:24.131Z,100.00
2022-12-04T15:47:26.361Z,100.00
2022-12-04T15:52:27.804Z,100.00
2022-12-04T15:57:33.577Z,100.00
2022-12-04T16:02:39.953Z,100.00
2022-12-04T16:07:58.674Z,100.00
2022-12-04T16:13:02.766Z,100.00
2022-12-04T16:18:06.150Z,100.00
2022-12-04T16:23:07.573Z,100.00
2022-12-04T16:28:09.068Z,100.00
2022-12-04T16:33:14.827Z,100.00
2022-12-04T16:38:17.233Z,100.00
2022-12-04T16:43:18.757Z,100.00
2022-12-04T16:48:20.823Z,100.00
2022-12-04T16:53:22.772Z,100.00
2022-12-04T16:58:24.288Z,100.00
2022-12-04T17:03:29.310Z,100.00
2022-12-04T17:08:32.021Z,100.00
2022-12-04T17:13:33.455Z,100.00
2022-12-04T17:18:35.210Z,100.00
2022-12-04T17:23:37.494Z,100.00
2022-12-04T17:28:39.038Z,100.00
2022-12-04T17:33:40.562Z,100.00
2022-12-04T17:38:42.314Z,100.00
2022-12-04T17:43:44.272Z,100.00
2022-12-04T17:48:45.959Z,100.00
2022-12-04T17:53:48.478Z,100.00
2022-12-04T17:58:51.532Z,100.00
2022-12-04T18:03:58.308Z,100.00
2022-12-04T18:09:00.208Z,100.00
2022-12-04T18:14:11.484Z,100.00
2022-12-04T18:19:14.736Z,100.00
2022-12-04T18:24:17.393Z,100.00
2022-12-04T18:29:22.271Z,100.00
2022-12-04T18:34:24.055Z,100.00
2022-12-04T18:39:26.197Z,100.00
2022-12-04T18:44:27.722Z,100.00
2022-12-04T18:49:29.263Z,100.00
2022-12-04T18:54:30.814Z,100.00
2022-12-04T18:59:33.085Z,100.00
2022-12-04T19:04:34.638Z,100.00
2022-12-04T19:10:09.468Z,100.00
2022-12-04T19:14:57.651Z,100.00
2022-12-04T19:19:59.405Z,100.00
2022-12-04T19:25:01.541Z,100.00
2022-12-04T19:30:04.366Z,100.00
2022-12-04T19:35:06.010Z,100.00
2022-12-04T19:40:08.171Z,100.00
2022-12-04T19:45:09.946Z,100.00
2022-12-04T19:50:11.701Z,100.00
2022-12-04T19:55:13.277Z,100.00
2022-12-04T20:00:14.991Z,100.00
2022-12-04T20:05:16.455Z,100.00
2022-12-04T20:10:18.013Z,100.00
2022-12-04T20:15:19.603Z,100.00
2022-12-04T20:20:21.092Z,100.00
2022-12-04T20:25:22.769Z,100.00
2022-12-04T20:30:24.249Z,100.00
2022-12-04T20:35:25.856Z,100.00
2022-12-04T20:40:27.398Z,100.00
2022-12-04T20:45:30.291Z,100.00
2022-12-04T20:50:32.238Z,100.00
2022-12-04T20:55:33.670Z,100.00
2022-12-04T21:00:35.175Z,100.00
2022-12-04T21:05:36.672Z,100.00
2022-12-04T21:10:38.243Z,100.00
2022-12-04T21:15:58.294Z,100.00
2022-12-04T21:21:01.431Z,100.00
2022-12-04T21:26:03.119Z,100.00
2022-12-04T21:31:06.282Z,100.00
2022-12-04T21:36:09.475Z,100.00
2022-12-04T21:41:31.567Z,100.00
2022-12-04T21:46:33.074Z,100.00
2022-12-04T21:52:01.090Z,100.00
2022-12-04T21:56:56.690Z,100.00
2022-12-04T22:01:58.490Z,100.00
2022-12-04T22:06:59.973Z,100.00
2022-12-04T22:12:04.200Z,100.00
2022-12-04T22:17:16.351Z,100.00
2022-12-04T22:22:17.906Z,100.00
2022-12-04T22:27:19.368Z,100.00
2022-12-04T22:32:21.138Z,100.00
2022-12-04T22:37:24.307Z,100.00
2022-12-04T22:42:25.897Z,100.00
2022-12-04T22:47:27.388Z,100.00
2022-12-04T22:52:32.927Z,100.00
2022-12-04T22:57:34.426Z,100.00
2022-12-04T23:02:36.035Z,100.00
2022-12-04T23:07:38.626Z,100.00
2022-12-04T23:12:40.163Z,100.00
2022-12-04T23:17:41.621Z,100.00
2022-12-04T23:22:43.076Z,100.00
2022-12-04T23:27:44.498Z,100.00
2022-12-04T23:32:45.894Z,100.00
2022-12-04T23:37:47.366Z,100.00
2022-12-04T23:42:48.811Z,100.00
2022-12-04T23:47:50.312Z,100.00
2022-12-04T23:52:51.748Z,100.00
2022-12-04T23:57:53.366Z,100.00
